The Highlands, Washington
Current Conditions -  °F | °C
As of 5:53 AM on Saturday 25 Oct 2014 (Local Time) from KPAE Reporting Station
Clear Clear  
Wind Chill: 46°   Ceiling: Unl
Heat Index: 48°   Visibility: 10mi
Dew Point: 46°   Wind: 5mph
Humidity: 93%   Direction: 20°NNE
Pressure: 29.5"   Gusts: NA
Location:  47.7424°N, 122.371°W
Report Text: KPAE 251253Z AUTO 02004KT 10SM CLR 09/08 A2950 RMK AO2 SLP990 T00890078
Loading
Personal Weather Stations






























Interactive Weather Map
Tropical Storm Tracking
New forecast layout! Learn more

10-Day Weather Forecast

Advertisements
Track Severe Weather on mobile